sensor_id;sensor_type;location;lat;lon;timestamp;pressure;altitude;pressure_sealevel;temperature;humidity
32298;BME280;18782;48.984;8.548;2022-12-16T00:01:05;98867.41;;;-0.87;89.00
32298;BME280;18782;48.984;8.548;2022-12-16T00:03:33;98866.78;;;-0.83;89.45
32298;BME280;18782;48.984;8.548;2022-12-16T00:06:02;98871.91;;;-0.81;88.60
32298;BME280;18782;48.984;8.548;2022-12-16T00:08:33;98868.66;;;-0.79;88.33
32298;BME280;18782;48.984;8.548;2022-12-16T00:11:01;98880.69;;;-0.74;88.84
32298;BME280;18782;48.984;8.548;2022-12-16T00:13:30;98876.59;;;-0.72;88.47
32298;BME280;18782;48.984;8.548;2022-12-16T00:15:59;98890.16;;;-0.70;88.09
32298;BME280;18782;48.984;8.548;2022-12-16T00:18:30;98887.63;;;-0.70;87.70
32298;BME280;18782;48.984;8.548;2022-12-16T00:20:57;98890.78;;;-0.74;87.62
32298;BME280;18782;48.984;8.548;2022-12-16T00:23:25;98895.69;;;-0.77;87.70
32298;BME280;18782;48.984;8.548;2022-12-16T00:25:53;98894.84;;;-0.78;87.75
32298;BME280;18782;48.984;8.548;2022-12-16T00:28:21;98901.69;;;-0.75;88.13
32298;BME280;18782;48.984;8.548;2022-12-16T00:30:50;98904.94;;;-0.78;88.31
32298;BME280;18782;48.984;8.548;2022-12-16T00:33:21;98889.06;;;-0.75;89.11
32298;BME280;18782;48.984;8.548;2022-12-16T00:35:49;98895.16;;;-0.72;88.00
32298;BME280;18782;48.984;8.548;2022-12-16T00:38:17;98896.16;;;-0.68;88.54
32298;BME280;18782;48.984;8.548;2022-12-16T00:40:44;98909.44;;;-0.72;88.36
32298;BME280;18782;48.984;8.548;2022-12-16T00:43:12;98902.09;;;-0.68;88.38
32298;BME280;18782;48.984;8.548;2022-12-16T00:45:40;98904.84;;;-0.63;87.32
32298;BME280;18782;48.984;8.548;2022-12-16T00:48:09;98914.81;;;-0.66;87.06
32298;BME280;18782;48.984;8.548;2022-12-16T00:50:36;98922.84;;;-0.73;86.51
32298;BME280;18782;48.984;8.548;2022-12-16T00:53:04;98930.09;;;-0.80;87.58
32298;BME280;18782;48.984;8.548;2022-12-16T00:55:31;98925.84;;;-0.81;87.61
32298;BME280;18782;48.984;8.548;2022-12-16T00:57:59;98928.53;;;-0.94;88.49
32298;BME280;18782;48.984;8.548;2022-12-16T01:00:26;98932.84;;;-0.91;89.67
32298;BME280;18782;48.984;8.548;2022-12-16T01:02:53;98945.25;;;-0.96;89.45
32298;BME280;18782;48.984;8.548;2022-12-16T01:05:23;98947.53;;;-1.00;89.33
32298;BME280;18782;48.984;8.548;2022-12-16T01:07:52;98950.28;;;-0.96;89.80
32298;BME280;18782;48.984;8.548;2022-12-16T01:10:20;98952.56;;;-1.00;90.62
32298;BME280;18782;48.984;8.548;2022-12-16T01:12:47;98954.22;;;-1.01;90.68
32298;BME280;18782;48.984;8.548;2022-12-16T01:15:15;98958.34;;;-1.03;90.21
32298;BME280;18782;48.984;8.548;2022-12-16T01:17:43;98952.97;;;-1.09;90.61
32298;BME280;18782;48.984;8.548;2022-12-16T01:20:11;98950.88;;;-1.16;90.56
32298;BME280;18782;48.984;8.548;2022-12-16T01:22:40;98959.06;;;-1.20;90.71
32298;BME280;18782;48.984;8.548;2022-12-16T01:25:08;98959.69;;;-1.24;91.63
32298;BME280;18782;48.984;8.548;2022-12-16T01:27:38;98950.38;;;-1.25;92.66
32298;BME280;18782;48.984;8.548;2022-12-16T01:30:05;98956.06;;;-1.29;91.88
32298;BME280;18782;48.984;8.548;2022-12-16T01:32:34;98958.41;;;-1.33;92.95
32298;BME280;18782;48.984;8.548;2022-12-16T01:35:01;98955.34;;;-1.42;93.17
32298;BME280;18782;48.984;8.548;2022-12-16T01:37:45;98965.31;;;-1.45;93.59
32298;BME280;18782;48.984;8.548;2022-12-16T01:40:13;98962.59;;;-1.48;93.67
32298;BME280;18782;48.984;8.548;2022-12-16T01:42:43;98963.13;;;-1.53;94.33
32298;BME280;18782;48.984;8.548;2022-12-16T01:45:21;98968.44;;;-1.49;94.46
32298;BME280;18782;48.984;8.548;2022-12-16T01:47:54;98961.81;;;-1.47;94.48
32298;BME280;18782;48.984;8.548;2022-12-16T01:50:23;98969.38;;;-1.47;94.22
32298;BME280;18782;48.984;8.548;2022-12-16T01:52:53;98965.91;;;-1.49;93.06
32298;BME280;18782;48.984;8.548;2022-12-16T01:55:24;98968.88;;;-1.56;93.64
32298;BME280;18782;48.984;8.548;2022-12-16T01:57:54;98961.91;;;-1.60;93.82
32298;BME280;18782;48.984;8.548;2022-12-16T02:00:22;98967.56;;;-1.64;94.88
32298;BME280;18782;48.984;8.548;2022-12-16T02:02:50;98971.69;;;-1.66;94.90
32298;BME280;18782;48.984;8.548;2022-12-16T02:05:17;98970.09;;;-1.64;94.82
32298;BME280;18782;48.984;8.548;2022-12-16T02:07:51;98965.91;;;-1.64;95.40
32298;BME280;18782;48.984;8.548;2022-12-16T02:10:21;98962.97;;;-1.56;94.96
32298;BME280;18782;48.984;8.548;2022-12-16T02:12:55;98970.63;;;-1.55;94.59
32298;BME280;18782;48.984;8.548;2022-12-16T02:15:28;98972.63;;;-1.49;94.56
32298;BME280;18782;48.984;8.548;2022-12-16T02:18:02;98973.66;;;-1.46;95.21
32298;BME280;18782;48.984;8.548;2022-12-16T02:20:43;98982.63;;;-1.51;93.64
32298;BME280;18782;48.984;8.548;2022-12-16T02:23:31;98979.31;;;-1.50;93.42
32298;BME280;18782;48.984;8.548;2022-12-16T02:26:28;98979.47;;;-1.47;94.73
32298;BME280;18782;48.984;8.548;2022-12-16T02:29:08;98985.38;;;-1.46;94.76
32298;BME280;18782;48.984;8.548;2022-12-16T02:31:46;98980.44;;;-1.45;93.92
32298;BME280;18782;48.984;8.548;2022-12-16T02:34:24;98979.66;;;-1.44;93.50
32298;BME280;18782;48.984;8.548;2022-12-16T02:36:59;98976.34;;;-1.43;94.27
32298;BME280;18782;48.984;8.548;2022-12-16T02:39:30;98981.25;;;-1.46;94.07
32298;BME280;18782;48.984;8.548;2022-12-16T02:42:05;98981.31;;;-1.44;93.80
32298;BME280;18782;48.984;8.548;2022-12-16T02:44:34;98987.75;;;-1.35;93.07
32298;BME280;18782;48.984;8.548;2022-12-16T02:47:07;98993.75;;;-1.33;92.65
32298;BME280;18782;48.984;8.548;2022-12-16T02:49:44;98997.06;;;-1.34;91.59
32298;BME280;18782;48.984;8.548;2022-12-16T02:52:12;99004.38;;;-1.38;92.32
32298;BME280;18782;48.984;8.548;2022-12-16T02:54:40;99003.59;;;-1.37;91.73
32298;BME280;18782;48.984;8.548;2022-12-16T02:57:11;99009.41;;;-1.38;91.33
32298;BME280;18782;48.984;8.548;2022-12-16T02:59:45;99013.78;;;-1.36;91.17
32298;BME280;18782;48.984;8.548;2022-12-16T03:02:18;99019.78;;;-1.34;90.59
32298;BME280;18782;48.984;8.548;2022-12-16T03:04:48;99006.38;;;-1.33;89.51
32298;BME280;18782;48.984;8.548;2022-12-16T03:07:17;99009.06;;;-1.29;90.23
32298;BME280;18782;48.984;8.548;2022-12-16T03:09:46;99015.84;;;-1.28;89.39
32298;BME280;18782;48.984;8.548;2022-12-16T03:12:15;99020.31;;;-1.24;88.28
32298;BME280;18782;48.984;8.548;2022-12-16T03:14:45;99015.31;;;-1.23;88.64
32298;BME280;18782;48.984;8.548;2022-12-16T03:17:14;99020.72;;;-1.32;87.45
32298;BME280;18782;48.984;8.548;2022-12-16T03:19:46;99015.34;;;-1.38;88.37
32298;BME280;18782;48.984;8.548;2022-12-16T03:22:16;99017.78;;;-1.39;88.95
32298;BME280;18782;48.984;8.548;2022-12-16T03:24:46;99017.84;;;-1.38;88.83
32298;BME280;18782;48.984;8.548;2022-12-16T03:27:15;99024.63;;;-1.37;88.58
32298;BME280;18782;48.984;8.548;2022-12-16T03:29:45;99027.00;;;-1.40;88.82
32298;BME280;18782;48.984;8.548;2022-12-16T03:32:17;99028.41;;;-1.45;89.67
32298;BME280;18782;48.984;8.548;2022-12-16T03:34:50;99029.19;;;-1.46;89.34
32298;BME280;18782;48.984;8.548;2022-12-16T03:37:19;99033.47;;;-1.45;89.19
32298;BME280;18782;48.984;8.548;2022-12-16T03:39:48;99035.19;;;-1.44;89.35
32298;BME280;18782;48.984;8.548;2022-12-16T03:42:17;99031.72;;;-1.46;89.72
32298;BME280;18782;48.984;8.548;2022-12-16T03:44:45;99035.25;;;-1.42;89.76
32298;BME280;18782;48.984;8.548;2022-12-16T03:47:13;99036.78;;;-1.46;88.22
32298;BME280;18782;48.984;8.548;2022-12-16T03:49:50;99038.16;;;-1.51;88.35
32298;BME280;18782;48.984;8.548;2022-12-16T03:52:17;99040.69;;;-1.51;90.10
32298;BME280;18782;48.984;8.548;2022-12-16T03:54:44;99039.03;;;-1.50;89.83
32298;BME280;18782;48.984;8.548;2022-12-16T03:57:12;99043.34;;;-1.48;88.72
32298;BME280;18782;48.984;8.548;2022-12-16T03:59:41;99048.34;;;-1.49;88.80
32298;BME280;18782;48.984;8.548;2022-12-16T04:02:08;99050.00;;;-1.50;90.01
32298;BME280;18782;48.984;8.548;2022-12-16T04:04:36;99060.44;;;-1.44;89.99
32298;BME280;18782;48.984;8.548;2022-12-16T04:07:04;99050.34;;;-1.44;89.01
32298;BME280;18782;48.984;8.548;2022-12-16T04:09:47;99061.22;;;-1.45;88.02
32298;BME280;18782;48.984;8.548;2022-12-16T04:12:15;99063.91;;;-1.42;88.40
32298;BME280;18782;48.984;8.548;2022-12-16T04:15:00;99067.72;;;-1.48;88.85
32298;BME280;18782;48.984;8.548;2022-12-16T04:17:45;99063.56;;;-1.48;88.50
32298;BME280;18782;48.984;8.548;2022-12-16T04:20:30;99079.69;;;-1.46;87.62
32298;BME280;18782;48.984;8.548;2022-12-16T04:23:25;99064.25;;;-1.50;87.78
32298;BME280;18782;48.984;8.548;2022-12-16T04:26:12;99076.16;;;-1.48;87.52
32298;BME280;18782;48.984;8.548;2022-12-16T04:28:39;99075.03;;;-1.53;88.07
32298;BME280;18782;48.984;8.548;2022-12-16T04:31:07;99081.81;;;-1.52;89.06
32298;BME280;18782;48.984;8.548;2022-12-16T04:33:35;99072.59;;;-1.51;89.07
32298;BME280;18782;48.984;8.548;2022-12-16T04:36:20;99080.28;;;-1.50;87.97
32298;BME280;18782;48.984;8.548;2022-12-16T04:39:08;99079.41;;;-1.50;87.23
32298;BME280;18782;48.984;8.548;2022-12-16T04:41:53;99081.22;;;-1.48;87.33
32298;BME280;18782;48.984;8.548;2022-12-16T04:44:39;99087.94;;;-1.48;86.70
32298;BME280;18782;48.984;8.548;2022-12-16T04:47:24;99089.81;;;-1.59;86.54
32298;BME280;18782;48.984;8.548;2022-12-16T04:50:09;99094.69;;;-1.62;85.70
32298;BME280;18782;48.984;8.548;2022-12-16T04:52:54;99103.03;;;-1.63;87.10
32298;BME280;18782;48.984;8.548;2022-12-16T04:55:40;99109.31;;;-1.71;86.97
32298;BME280;18782;48.984;8.548;2022-12-16T04:58:30;99104.25;;;-1.71;87.17
32298;BME280;18782;48.984;8.548;2022-12-16T05:01:15;99111.03;;;-1.70;87.02
32298;BME280;18782;48.984;8.548;2022-12-16T05:04:00;99116.09;;;-1.70;87.17
32298;BME280;18782;48.984;8.548;2022-12-16T05:06:45;99119.28;;;-1.73;86.48
32298;BME280;18782;48.984;8.548;2022-12-16T05:09:30;99117.28;;;-1.78;86.07
32298;BME280;18782;48.984;8.548;2022-12-16T05:12:16;99120.59;;;-1.79;86.78
32298;BME280;18782;48.984;8.548;2022-12-16T05:15:00;99129.44;;;-1.86;86.54
32298;BME280;18782;48.984;8.548;2022-12-16T05:17:54;99134.41;;;-1.88;85.75
32298;BME280;18782;48.984;8.548;2022-12-16T05:20:41;99140.31;;;-1.87;85.75
32298;BME280;18782;48.984;8.548;2022-12-16T05:23:26;99151.88;;;-1.91;84.76
32298;BME280;18782;48.984;8.548;2022-12-16T05:26:10;99154.59;;;-2.01;86.05
32298;BME280;18782;48.984;8.548;2022-12-16T05:28:57;99164.69;;;-2.01;85.77
32298;BME280;18782;48.984;8.548;2022-12-16T05:31:41;99166.66;;;-2.10;86.11
32298;BME280;18782;48.984;8.548;2022-12-16T05:34:26;99178.28;;;-2.12;87.43
32298;BME280;18782;48.984;8.548;2022-12-16T05:37:11;99174.03;;;-2.13;86.26
32298;BME280;18782;48.984;8.548;2022-12-16T05:39:56;99181.31;;;-2.18;85.53
32298;BME280;18782;48.984;8.548;2022-12-16T05:42:43;99178.88;;;-2.16;86.96
32298;BME280;18782;48.984;8.548;2022-12-16T05:45:29;99188.09;;;-2.17;86.60
32298;BME280;18782;48.984;8.548;2022-12-16T05:48:14;99195.38;;;-2.21;84.98
32298;BME280;18782;48.984;8.548;2022-12-16T05:50:59;99203.03;;;-2.33;85.23
32298;BME280;18782;48.984;8.548;2022-12-16T05:53:44;99206.06;;;-2.39;84.78
32298;BME280;18782;48.984;8.548;2022-12-16T05:56:29;99215.53;;;-2.48;85.56
32298;BME280;18782;48.984;8.548;2022-12-16T05:59:13;99222.91;;;-2.51;84.48
32298;BME280;18782;48.984;8.548;2022-12-16T06:02:00;99219.81;;;-2.60;85.78
32298;BME280;18782;48.984;8.548;2022-12-16T06:04:45;99219.88;;;-2.72;86.51
32298;BME280;18782;48.984;8.548;2022-12-16T06:07:30;99229.56;;;-2.78;85.83
32298;BME280;18782;48.984;8.548;2022-12-16T06:10:29;99225.00;;;-2.83;87.47
32298;BME280;18782;48.984;8.548;2022-12-16T06:13:14;99226.16;;;-2.78;86.36
32298;BME280;18782;48.984;8.548;2022-12-16T06:15:59;99231.78;;;-2.82;86.83
32298;BME280;18782;48.984;8.548;2022-12-16T06:18:46;99239.31;;;-2.82;87.17
32298;BME280;18782;48.984;8.548;2022-12-16T06:21:31;99242.28;;;-2.76;86.67
32298;BME280;18782;48.984;8.548;2022-12-16T06:24:16;99243.53;;;-2.70;86.69
32298;BME280;18782;48.984;8.548;2022-12-16T06:27:01;99250.78;;;-2.74;85.42
32298;BME280;18782;48.984;8.548;2022-12-16T06:29:46;99254.66;;;-2.79;85.65
32298;BME280;18782;48.984;8.548;2022-12-16T06:32:30;99251.97;;;-2.56;92.97
32298;BME280;18782;48.984;8.548;2022-12-16T06:35:17;99259.91;;;-2.76;88.86
32298;BME280;18782;48.984;8.548;2022-12-16T06:38:01;99278.44;;;-2.88;86.82
32298;BME280;18782;48.984;8.548;2022-12-16T06:40:55;99285.97;;;-3.01;86.39
32298;BME280;18782;48.984;8.548;2022-12-16T06:43:40;99286.50;;;-3.18;85.89
32298;BME280;18782;48.984;8.548;2022-12-16T06:46:25;99292.56;;;-3.39;86.34
32298;BME280;18782;48.984;8.548;2022-12-16T06:49:10;99303.44;;;-3.52;85.96
32298;BME280;18782;48.984;8.548;2022-12-16T06:51:53;99309.34;;;-3.52;87.06
32298;BME280;18782;48.984;8.548;2022-12-16T06:54:37;99304.97;;;-2.93;99.35
32298;BME280;18782;48.984;8.548;2022-12-16T06:57:22;99309.19;;;-3.05;100.00
32298;BME280;18782;48.984;8.548;2022-12-16T07:00:08;99316.88;;;-3.15;96.80
32298;BME280;18782;48.984;8.548;2022-12-16T07:02:53;99315.19;;;-3.28;93.33
32298;BME280;18782;48.984;8.548;2022-12-16T07:05:38;99312.13;;;-3.35;92.00
32298;BME280;18782;48.984;8.548;2022-12-16T07:08:24;99323.88;;;-3.11;96.10
32298;BME280;18782;48.984;8.548;2022-12-16T07:11:09;99335.69;;;-3.10;93.38
32298;BME280;18782;48.984;8.548;2022-12-16T07:13:54;99337.09;;;-3.02;90.75
32298;BME280;18782;48.984;8.548;2022-12-16T07:16:44;99346.00;;;-3.07;88.52
32298;BME280;18782;48.984;8.548;2022-12-16T07:19:29;99340.09;;;-3.19;88.25
32298;BME280;18782;48.984;8.548;2022-12-16T07:22:14;99365.94;;;-3.22;88.30
32298;BME280;18782;48.984;8.548;2022-12-16T07:25:00;99361.56;;;-3.24;86.59
32298;BME280;18782;48.984;8.548;2022-12-16T07:27:45;99359.41;;;-3.31;87.62
32298;BME280;18782;48.984;8.548;2022-12-16T07:30:31;99364.00;;;-3.37;87.14
32298;BME280;18782;48.984;8.548;2022-12-16T07:33:16;99362.91;;;-3.41;87.78
32298;BME280;18782;48.984;8.548;2022-12-16T07:36:02;99377.03;;;-3.31;90.15
32298;BME280;18782;48.984;8.548;2022-12-16T07:38:47;99383.78;;;-3.30;89.61
32298;BME280;18782;48.984;8.548;2022-12-16T07:41:33;99394.22;;;-3.37;88.27
32298;BME280;18782;48.984;8.548;2022-12-16T07:44:18;99403.84;;;-3.44;86.40
32298;BME280;18782;48.984;8.548;2022-12-16T07:47:03;99393.56;;;-3.47;87.51
32298;BME280;18782;48.984;8.548;2022-12-16T07:49:48;99406.50;;;-3.54;87.03
32298;BME280;18782;48.984;8.548;2022-12-16T07:52:33;99411.81;;;-3.61;86.76
32298;BME280;18782;48.984;8.548;2022-12-16T07:55:20;99405.16;;;-3.72;86.26
32298;BME280;18782;48.984;8.548;2022-12-16T07:58:07;99416.53;;;-3.77;86.76
32298;BME280;18782;48.984;8.548;2022-12-16T08:00:52;99411.06;;;-3.83;86.99
32298;BME280;18782;48.984;8.548;2022-12-16T08:03:36;99420.78;;;-3.88;87.65
32298;BME280;18782;48.984;8.548;2022-12-16T08:06:22;99427.47;;;-3.88;88.59
32298;BME280;18782;48.984;8.548;2022-12-16T08:09:07;99432.06;;;-3.95;89.05
32298;BME280;18782;48.984;8.548;2022-12-16T08:11:52;99427.78;;;-3.96;88.98
32298;BME280;18782;48.984;8.548;2022-12-16T08:14:38;99424.84;;;-3.90;89.21
32298;BME280;18782;48.984;8.548;2022-12-16T08:17:23;99442.34;;;-3.80;88.76
32298;BME280;18782;48.984;8.548;2022-12-16T08:20:08;99437.31;;;-3.68;88.89
32298;BME280;18782;48.984;8.548;2022-12-16T08:22:53;99446.75;;;-3.54;87.06
32298;BME280;18782;48.984;8.548;2022-12-16T08:25:38;99450.03;;;-3.43;86.16
32298;BME280;18782;48.984;8.548;2022-12-16T08:28:23;99458.63;;;-3.39;86.65
32298;BME280;18782;48.984;8.548;2022-12-16T08:31:09;99461.81;;;-3.30;85.99
32298;BME280;18782;48.984;8.548;2022-12-16T08:33:54;99468.81;;;-3.26;85.79
32298;BME280;18782;48.984;8.548;2022-12-16T08:36:39;99472.31;;;-3.24;85.83
32298;BME280;18782;48.984;8.548;2022-12-16T08:39:24;99475.59;;;-3.25;85.53
32298;BME280;18782;48.984;8.548;2022-12-16T08:42:09;99473.84;;;-3.26;85.57
32298;BME280;18782;48.984;8.548;2022-12-16T08:44:53;99486.00;;;-3.32;85.50
32298;BME280;18782;48.984;8.548;2022-12-16T08:47:45;99486.97;;;-3.30;86.43
32298;BME280;18782;48.984;8.548;2022-12-16T08:50:44;99488.53;;;-3.32;86.03
32298;BME280;18782;48.984;8.548;2022-12-16T08:53:29;99490.03;;;-3.34;85.21
32298;BME280;18782;48.984;8.548;2022-12-16T08:56:25;99498.59;;;-3.32;85.79
32298;BME280;18782;48.984;8.548;2022-12-16T08:59:10;99497.06;;;-3.30;85.59
32298;BME280;18782;48.984;8.548;2022-12-16T09:01:55;99502.31;;;-3.27;84.55
32298;BME280;18782;48.984;8.548;2022-12-16T09:04:41;99502.31;;;-3.27;84.73
32298;BME280;18782;48.984;8.548;2022-12-16T09:07:26;99513.91;;;-3.18;85.22
32298;BME280;18782;48.984;8.548;2022-12-16T09:10:11;99521.66;;;-3.03;84.84
32298;BME280;18782;48.984;8.548;2022-12-16T09:13:05;99523.63;;;-2.87;84.84
32298;BME280;18782;48.984;8.548;2022-12-16T09:15:51;99535.00;;;-2.69;83.39
32298;BME280;18782;48.984;8.548;2022-12-16T09:18:43;99543.66;;;-2.65;83.64
32298;BME280;18782;48.984;8.548;2022-12-16T09:21:29;99541.00;;;-2.55;83.58
32298;BME280;18782;48.984;8.548;2022-12-16T09:24:13;99542.94;;;-2.39;82.68
32298;BME280;18782;48.984;8.548;2022-12-16T09:26:58;99541.78;;;-2.19;81.08
32298;BME280;18782;48.984;8.548;2022-12-16T09:29:43;99539.28;;;-2.06;81.20
32298;BME280;18782;48.984;8.548;2022-12-16T09:32:28;99538.00;;;-2.13;80.20
32298;BME280;18782;48.984;8.548;2022-12-16T09:35:13;99533.63;;;-2.15;79.73
32298;BME280;18782;48.984;8.548;2022-12-16T09:37:59;99537.13;;;-2.13;78.91
32298;BME280;18782;48.984;8.548;2022-12-16T09:40:44;99544.09;;;-2.09;79.32
32298;BME280;18782;48.984;8.548;2022-12-16T09:43:33;99553.09;;;-2.01;79.24
32298;BME280;18782;48.984;8.548;2022-12-16T09:46:22;99552.84;;;-1.92;77.75
32298;BME280;18782;48.984;8.548;2022-12-16T09:49:11;99553.50;;;-1.95;77.53
32298;BME280;18782;48.984;8.548;2022-12-16T09:52:00;99555.91;;;-1.96;76.40
32298;BME280;18782;48.984;8.548;2022-12-16T09:54:47;99568.16;;;-1.89;77.42
32298;BME280;18782;48.984;8.548;2022-12-16T09:57:33;99570.22;;;-1.84;77.89
32298;BME280;18782;48.984;8.548;2022-12-16T10:00:21;99568.72;;;-1.68;78.15
32298;BME280;18782;48.984;8.548;2022-12-16T10:03:11;99571.53;;;-1.64;75.65
32298;BME280;18782;48.984;8.548;2022-12-16T10:06:00;99564.97;;;-1.62;76.75
32298;BME280;18782;48.984;8.548;2022-12-16T10:08:49;99557.50;;;-1.47;75.74
32298;BME280;18782;48.984;8.548;2022-12-16T10:11:40;99562.38;;;-1.37;73.80
32298;BME280;18782;48.984;8.548;2022-12-16T10:14:29;99568.38;;;-1.48;74.63
32298;BME280;18782;48.984;8.548;2022-12-16T10:17:27;99563.72;;;-1.42;75.66
32298;BME280;18782;48.984;8.548;2022-12-16T10:20:12;99561.25;;;-1.28;76.03
32298;BME280;18782;48.984;8.548;2022-12-16T10:23:01;99563.38;;;-1.21;75.32
32298;BME280;18782;48.984;8.548;2022-12-16T10:25:50;99561.03;;;-1.05;73.42
32298;BME280;18782;48.984;8.548;2022-12-16T10:28:43;99562.41;;;-0.97;74.58
32298;BME280;18782;48.984;8.548;2022-12-16T10:31:28;99561.03;;;-0.79;74.02
32298;BME280;18782;48.984;8.548;2022-12-16T10:34:15;99556.28;;;-0.61;72.76
32298;BME280;18782;48.984;8.548;2022-12-16T10:37:02;99563.00;;;-0.74;73.53
32298;BME280;18782;48.984;8.548;2022-12-16T10:39:46;99555.78;;;-0.68;73.55
32298;BME280;18782;48.984;8.548;2022-12-16T10:42:35;99562.38;;;-0.44;73.94
32298;BME280;18782;48.984;8.548;2022-12-16T10:45:22;99553.91;;;-0.44;73.01
32298;BME280;18782;48.984;8.548;2022-12-16T10:48:09;99556.34;;;-0.59;73.79
32298;BME280;18782;48.984;8.548;2022-12-16T10:50:55;99555.97;;;-0.52;73.83
32298;BME280;18782;48.984;8.548;2022-12-16T10:53:40;99552.66;;;-0.51;73.99
32298;BME280;18782;48.984;8.548;2022-12-16T10:56:30;99556.88;;;-0.37;73.16
32298;BME280;18782;48.984;8.548;2022-12-16T10:59:21;99569.31;;;-0.27;73.75
32298;BME280;18782;48.984;8.548;2022-12-16T11:02:17;99569.31;;;-0.27;72.61
32298;BME280;18782;48.984;8.548;2022-12-16T11:05:06;99573.56;;;-0.12;71.94
32298;BME280;18782;48.984;8.548;2022-12-16T11:08:08;99574.63;;;-0.09;72.15
32298;BME280;18782;48.984;8.548;2022-12-16T11:11:08;99572.78;;;-0.11;72.26
32298;BME280;18782;48.984;8.548;2022-12-16T11:14:07;99571.00;;;0.01;71.82
32298;BME280;18782;48.984;8.548;2022-12-16T11:17:04;99573.81;;;0.06;71.59
32298;BME280;18782;48.984;8.548;2022-12-16T11:20:06;99576.78;;;0.13;71.11
32298;BME280;18782;48.984;8.548;2022-12-16T11:23:05;99580.16;;;0.27;71.31
32298;BME280;18782;48.984;8.548;2022-12-16T11:25:48;99582.56;;;0.25;71.03
32298;BME280;18782;48.984;8.548;2022-12-16T11:28:49;99586.91;;;0.13;69.69
32298;BME280;18782;48.984;8.548;2022-12-16T11:31:46;99593.00;;;0.02;67.37
32298;BME280;18782;48.984;8.548;2022-12-16T11:34:34;99590.56;;;-0.38;67.86
32298;BME280;18782;48.984;8.548;2022-12-16T11:37:22;99594.84;;;-0.50;69.33
32298;BME280;18782;48.984;8.548;2022-12-16T11:40:10;99590.16;;;-0.31;69.52
32298;BME280;18782;48.984;8.548;2022-12-16T11:42:56;99593.81;;;-0.12;69.38
32298;BME280;18782;48.984;8.548;2022-12-16T11:45:42;99607.03;;;-0.03;68.86
32298;BME280;18782;48.984;8.548;2022-12-16T11:48:30;99601.97;;;-0.03;69.45
32298;BME280;18782;48.984;8.548;2022-12-16T11:51:29;99610.72;;;-0.11;70.89
32298;BME280;18782;48.984;8.548;2022-12-16T11:54:23;99605.16;;;-0.06;69.31
32298;BME280;18782;48.984;8.548;2022-12-16T11:57:15;99610.00;;;0.05;69.35
32298;BME280;18782;48.984;8.548;2022-12-16T12:00:02;99611.28;;;-0.02;67.68
32298;BME280;18782;48.984;8.548;2022-12-16T12:02:47;99614.81;;;-0.13;67.84
32298;BME280;18782;48.984;8.548;2022-12-16T12:05:35;99623.66;;;-0.07;68.54
32298;BME280;18782;48.984;8.548;2022-12-16T12:08:24;99623.34;;;0.02;67.98
32298;BME280;18782;48.984;8.548;2022-12-16T12:11:14;99615.19;;;0.06;68.37
32298;BME280;18782;48.984;8.548;2022-12-16T12:14:04;99616.81;;;0.34;68.04
32298;BME280;18782;48.984;8.548;2022-12-16T12:16:56;99616.56;;;0.44;72.39
32298;BME280;18782;48.984;8.548;2022-12-16T12:19:47;99633.81;;;0.64;72.53
32298;BME280;18782;48.984;8.548;2022-12-16T12:22:34;99629.63;;;0.65;71.17
32298;BME280;18782;48.984;8.548;2022-12-16T12:25:21;99628.00;;;0.95;68.45
32298;BME280;18782;48.984;8.548;2022-12-16T12:28:11;99643.81;;;1.06;66.71
32298;BME280;18782;48.984;8.548;2022-12-16T12:31:05;99643.97;;;0.94;67.58
32298;BME280;18782;48.984;8.548;2022-12-16T12:33:57;99641.06;;;0.88;68.25
32298;BME280;18782;48.984;8.548;2022-12-16T12:36:45;99645.53;;;0.92;66.88
32298;BME280;18782;48.984;8.548;2022-12-16T12:39:34;99654.81;;;1.06;67.79
32298;BME280;18782;48.984;8.548;2022-12-16T12:42:24;99655.69;;;1.21;66.05
32298;BME280;18782;48.984;8.548;2022-12-16T12:45:30;99657.16;;;1.03;66.30
32298;BME280;18782;48.984;8.548;2022-12-16T12:48:23;99649.91;;;1.24;65.04
32298;BME280;18782;48.984;8.548;2022-12-16T12:51:09;99661.91;;;1.26;64.82
32298;BME280;18782;48.984;8.548;2022-12-16T12:53:58;99659.25;;;1.40;64.48
32298;BME280;18782;48.984;8.548;2022-12-16T12:56:47;99655.50;;;1.48;67.77
32298;BME280;18782;48.984;8.548;2022-12-16T12:59:35;99654.44;;;1.29;66.64
32298;BME280;18782;48.984;8.548;2022-12-16T13:02:31;99654.09;;;1.23;66.76
32298;BME280;18782;48.984;8.548;2022-12-16T13:05:21;99656.56;;;1.37;66.01
32298;BME280;18782;48.984;8.548;2022-12-16T13:11:11;99662.03;;;1.59;64.78
32298;BME280;18782;48.984;8.548;2022-12-16T13:14:00;99662.44;;;1.67;64.96
32298;BME280;18782;48.984;8.548;2022-12-16T13:19:58;99666.84;;;1.86;66.27
32298;BME280;18782;48.984;8.548;2022-12-16T13:22:43;99670.13;;;2.30;75.19
32298;BME280;18782;48.984;8.548;2022-12-16T13:25:30;99673.72;;;2.19;67.17
32298;BME280;18782;48.984;8.548;2022-12-16T13:28:21;99676.34;;;2.04;65.32
32298;BME280;18782;48.984;8.548;2022-12-16T13:31:07;99684.81;;;1.89;65.33
32298;BME280;18782;48.984;8.548;2022-12-16T13:33:53;99682.44;;;1.77;63.66
32298;BME280;18782;48.984;8.548;2022-12-16T13:36:43;99689.28;;;1.78;64.36
32298;BME280;18782;48.984;8.548;2022-12-16T13:39:29;99698.13;;;1.70;65.64
32298;BME280;18782;48.984;8.548;2022-12-16T13:42:30;99704.03;;;1.54;66.09
32298;BME280;18782;48.984;8.548;2022-12-16T13:45:22;99706.03;;;1.45;65.42
32298;BME280;18782;48.984;8.548;2022-12-16T13:48:24;99703.41;;;1.58;66.06
32298;BME280;18782;48.984;8.548;2022-12-16T13:51:10;99705.50;;;1.36;65.76
32298;BME280;18782;48.984;8.548;2022-12-16T13:54:16;99715.66;;;1.36;64.80
32298;BME280;18782;48.984;8.548;2022-12-16T13:57:01;99717.41;;;1.22;65.14
32298;BME280;18782;48.984;8.548;2022-12-16T13:59:47;99718.25;;;0.93;64.81
32298;BME280;18782;48.984;8.548;2022-12-16T14:02:47;99728.91;;;0.59;65.80
32298;BME280;18782;48.984;8.548;2022-12-16T14:05:35;99727.19;;;0.73;67.02
32298;BME280;18782;48.984;8.548;2022-12-16T14:08:21;99734.78;;;0.73;66.26
32298;BME280;18782;48.984;8.548;2022-12-16T14:11:12;99744.31;;;1.05;79.37
32298;BME280;18782;48.984;8.548;2022-12-16T14:14:05;99747.41;;;0.86;71.33
32298;BME280;18782;48.984;8.548;2022-12-16T14:16:52;99752.53;;;1.01;72.54
32298;BME280;18782;48.984;8.548;2022-12-16T14:19:41;99750.41;;;0.94;69.02
32298;BME280;18782;48.984;8.548;2022-12-16T14:22:35;99760.69;;;0.82;66.59
32298;BME280;18782;48.984;8.548;2022-12-16T14:25:25;99760.47;;;0.64;67.38
32298;BME280;18782;48.984;8.548;2022-12-16T14:28:14;99763.38;;;0.57;67.91